createdAt,value
2023-04-15T00:01:48.605Z,44.74
2023-04-15T00:06:53.316Z,44.68
2023-04-15T00:11:54.769Z,44.98
2023-04-15T00:16:56.423Z,45.67
2023-04-15T00:21:58.029Z,45.70
2023-04-15T00:26:59.716Z,46.57
2023-04-15T00:32:01.191Z,46.04
2023-04-15T00:37:03.107Z,45.69
2023-04-15T00:42:05.429Z,45.19
2023-04-15T00:47:07.397Z,44.78
2023-04-15T00:52:08.927Z,45.21
2023-04-15T00:57:10.399Z,45.75
2023-04-15T01:02:12.159Z,45.69
2023-04-15T01:07:13.906Z,45.80
2023-04-15T01:12:16.597Z,46.27
2023-04-15T01:17:18.128Z,46.47
2023-04-15T01:22:19.698Z,45.63
2023-04-15T01:27:21.906Z,45.52
2023-04-15T01:32:23.629Z,45.05
2023-04-15T01:37:26.735Z,44.96
2023-04-15T01:42:28.265Z,45.00
2023-04-15T01:47:29.779Z,45.10
2023-04-15T01:52:31.246Z,44.87
2023-04-15T01:57:32.716Z,44.85
2023-04-15T02:02:34.278Z,44.61
2023-04-15T02:07:35.840Z,44.85
2023-04-15T02:12:37.288Z,44.92
2023-04-15T02:17:39.078Z,45.88
2023-04-15T02:22:42.237Z,45.72
2023-04-15T02:27:43.894Z,46.36
2023-04-15T02:32:45.722Z,45.14
2023-04-15T02:37:47.255Z,45.15
2023-04-15T02:42:48.833Z,44.99
2023-04-15T02:47:52.658Z,45.39
2023-04-15T02:52:54.782Z,45.72
2023-04-15T02:57:56.304Z,45.28
2023-04-15T03:03:02.352Z,44.87
2023-04-15T03:08:04.083Z,44.92
2023-04-15T03:13:05.837Z,44.83
2023-04-15T03:18:07.367Z,45.29
2023-04-15T03:23:09.404Z,45.32
2023-04-15T03:28:11.346Z,46.35
2023-04-15T03:33:12.890Z,46.69
2023-04-15T03:38:14.642Z,47.27
2023-04-15T03:43:16.131Z,47.65
2023-04-15T03:48:18.295Z,47.70
2023-04-15T03:53:21.664Z,47.58
2023-04-15T03:58:23.120Z,48.50
2023-04-15T04:03:24.890Z,48.53
2023-04-15T04:08:26.492Z,48.68
2023-04-15T04:13:28.013Z,49.47
2023-04-15T04:18:29.447Z,49.60
2023-04-15T04:23:30.924Z,49.42
2023-04-15T04:28:32.373Z,49.25
2023-04-15T04:33:34.144Z,48.13
2023-04-15T04:38:35.686Z,47.96
2023-04-15T04:43:37.161Z,48.00
2023-04-15T04:48:38.593Z,48.02
2023-04-15T04:53:40.014Z,48.41
2023-04-15T04:58:41.480Z,48.36
2023-04-15T05:03:43.019Z,48.08
2023-04-15T05:08:45.068Z,48.92
2023-04-15T05:13:46.582Z,49.18
2023-04-15T05:18:48.129Z,49.25
2023-04-15T05:23:49.754Z,47.54
2023-04-15T05:28:51.201Z,48.47
2023-04-15T05:33:52.791Z,46.39
2023-04-15T05:38:54.242Z,45.40
2023-04-15T05:43:55.739Z,44.79
2023-04-15T05:48:57.216Z,44.60
2023-04-15T05:53:58.706Z,44.49
2023-04-15T05:59:00.321Z,43.75
2023-04-15T06:04:01.991Z,43.89
2023-04-15T06:09:04.260Z,44.27
2023-04-15T06:14:05.921Z,44.00
2023-04-15T06:19:07.412Z,44.90
2023-04-15T06:24:08.935Z,46.24
2023-04-15T06:29:10.395Z,46.30
2023-04-15T06:34:11.839Z,48.53
2023-04-15T06:39:13.258Z,48.24
2023-04-15T06:44:14.736Z,47.19
2023-04-15T06:49:16.179Z,47.74
2023-04-15T06:54:17.692Z,47.29
2023-04-15T06:59:19.193Z,47.08
2023-04-15T07:04:20.754Z,47.39
2023-04-15T07:09:25.370Z,46.80
2023-04-15T07:14:26.822Z,46.56
2023-04-15T07:19:28.300Z,46.75
2023-04-15T07:24:29.893Z,46.79
2023-04-15T07:29:31.346Z,46.25
2023-04-15T07:34:32.895Z,45.74
2023-04-15T07:39:34.404Z,45.34
2023-04-15T07:44:35.846Z,44.81
2023-04-15T07:49:37.315Z,42.74
2023-04-15T07:54:38.823Z,42.96
2023-04-15T07:59:40.354Z,42.59
2023-04-15T08:04:42.117Z,41.56
2023-04-15T08:09:44.074Z,41.37
2023-04-15T08:14:45.608Z,40.77
2023-04-15T08:19:47.051Z,41.74
2023-04-15T08:24:48.567Z,42.23
2023-04-15T08:29:50.006Z,44.28
2023-04-15T08:34:51.524Z,41.26
2023-04-15T08:39:52.981Z,41.79
2023-04-15T08:44:55.437Z,39.95
2023-04-15T08:49:58.234Z,40.07
2023-04-15T08:55:00.314Z,40.05
2023-04-15T09:00:05.355Z,39.60
2023-04-15T09:05:07.905Z,39.50
2023-04-15T09:10:10.115Z,39.63
2023-04-15T09:15:12.034Z,38.50
2023-04-15T09:20:15.069Z,39.21
2023-04-15T09:25:22.282Z,39.96
2023-04-15T09:30:24.285Z,38.99
2023-04-15T09:35:27.261Z,39.10
2023-04-15T09:40:36.942Z,39.01
2023-04-15T09:45:38.496Z,40.36
2023-04-15T09:50:42.156Z,39.65
2023-04-15T09:55:57.268Z,38.51
2023-04-15T10:01:00.126Z,38.65
2023-04-15T10:06:02.306Z,39.07
2023-04-15T10:11:04.413Z,39.24
2023-04-15T10:16:16.027Z,39.05
2023-04-15T10:21:18.921Z,38.82
2023-04-15T10:26:21.393Z,38.92
2023-04-15T10:31:23.730Z,38.92
2023-04-15T10:36:25.637Z,40.03
2023-04-15T10:41:28.643Z,38.74
2023-04-15T10:46:39.018Z,38.22
2023-04-15T10:51:43.674Z,40.34
2023-04-15T10:56:45.615Z,38.52
2023-04-15T11:01:51.248Z,39.10
2023-04-15T11:07:05.656Z,38.72
2023-04-15T11:12:10.085Z,39.89
2023-04-15T11:17:11.682Z,38.32
2023-04-15T11:22:13.183Z,37.71
2023-04-15T11:27:23.942Z,37.26
2023-04-15T11:32:25.458Z,35.78
2023-04-15T11:37:30.332Z,36.14
2023-04-15T11:42:42.819Z,35.26
2023-04-15T11:47:50.454Z,35.22
2023-04-15T11:53:00.293Z,36.77
2023-04-15T11:58:14.459Z,37.62
2023-04-15T12:03:21.254Z,36.93
2023-04-15T12:08:22.872Z,36.75
2023-04-15T12:13:24.317Z,37.13
2023-04-15T12:18:25.782Z,36.86
2023-04-15T12:23:27.281Z,37.49
2023-04-15T12:28:30.752Z,37.62
2023-04-15T12:33:35.339Z,36.67
2023-04-15T12:38:36.827Z,36.24
2023-04-15T12:43:38.276Z,37.22
2023-04-15T12:48:40.434Z,36.69
2023-04-15T12:53:41.964Z,36.89
2023-04-15T12:58:43.447Z,37.13
2023-04-15T13:03:45.070Z,36.96
2023-04-15T13:08:57.185Z,37.83
2023-04-15T13:14:07.709Z,37.44
2023-04-15T13:19:10.354Z,37.53
2023-04-15T13:24:11.815Z,38.30
2023-04-15T13:29:13.325Z,33.61
2023-04-15T13:34:14.757Z,32.62
2023-04-15T13:39:16.196Z,32.43
2023-04-15T13:44:17.646Z,33.86
2023-04-15T13:49:21.312Z,33.86
2023-04-15T13:54:22.756Z,35.26
2023-04-15T13:59:24.197Z,36.28
2023-04-15T14:04:25.961Z,37.87
2023-04-15T14:09:28.100Z,38.41
2023-04-15T14:14:29.801Z,36.79
2023-04-15T14:19:32.179Z,35.26
2023-04-15T14:24:33.648Z,35.67
2023-04-15T14:29:35.139Z,36.17
2023-04-15T14:34:36.638Z,40.40
2023-04-15T14:39:38.115Z,39.75
2023-04-15T14:44:39.566Z,41.23
2023-04-15T14:49:41.086Z,41.21
2023-04-15T14:54:42.551Z,41.30
2023-04-15T14:59:44.069Z,40.90
2023-04-15T15:04:45.652Z,42.82
2023-04-15T15:09:47.263Z,42.41
2023-04-15T15:14:49.041Z,43.16
2023-04-15T15:19:50.590Z,43.84
2023-04-15T15:24:52.106Z,44.92
2023-04-15T15:29:53.556Z,45.19
2023-04-15T15:34:55.174Z,45.95
2023-04-15T15:39:56.690Z,47.13
2023-04-15T15:44:58.159Z,46.97
2023-04-15T15:50:00.451Z,47.64
2023-04-15T15:55:01.969Z,46.94
2023-04-15T16:05:08.366Z,47.37
2023-04-15T16:10:10.051Z,45.89
2023-04-15T16:15:12.516Z,45.93
2023-04-15T16:20:14.024Z,45.91
2023-04-15T16:25:15.583Z,46.05
2023-04-15T16:30:17.123Z,45.06
2023-04-15T16:35:18.665Z,45.75
2023-04-15T16:40:20.128Z,46.56
2023-04-15T16:45:21.623Z,45.97
2023-04-15T16:50:23.101Z,47.22
2023-04-15T16:55:24.637Z,47.73
2023-04-15T17:00:26.152Z,47.80
2023-04-15T17:05:27.810Z,48.40
2023-04-15T17:10:30.877Z,49.05
2023-04-15T17:15:32.340Z,49.03
2023-04-15T17:20:34.315Z,48.54
2023-04-15T17:25:35.816Z,49.08
2023-04-15T17:30:37.296Z,48.59
2023-04-15T17:35:39.378Z,47.40
2023-04-15T17:40:40.844Z,47.71
2023-04-15T17:45:42.316Z,47.16
2023-04-15T17:50:43.798Z,47.00
2023-04-15T17:55:45.302Z,46.83
2023-04-15T18:00:47.475Z,46.99
2023-04-15T18:05:49.103Z,46.51
2023-04-15T18:10:50.587Z,47.55
2023-04-15T18:15:52.064Z,48.77
2023-04-15T18:20:53.593Z,49.18
2023-04-15T18:25:55.126Z,49.07
2023-04-15T18:30:56.702Z,48.97
2023-04-15T18:35:58.356Z,50.00
2023-04-15T18:40:59.907Z,49.73
2023-04-15T18:46:01.507Z,50.53
2023-04-15T18:51:03.085Z,51.45
2023-04-15T18:56:04.741Z,51.61
2023-04-15T19:01:06.292Z,50.89
2023-04-15T19:06:07.776Z,48.92
2023-04-15T19:11:09.300Z,49.35
2023-04-15T19:16:10.808Z,49.69
2023-04-15T19:21:12.931Z,49.44
2023-04-15T19:26:14.408Z,49.97
2023-04-15T19:31:15.961Z,49.16
2023-04-15T19:36:17.536Z,49.27
2023-04-15T19:41:18.963Z,50.23
2023-04-15T19:46:20.533Z,49.93
2023-04-15T19:51:22.284Z,49.44
2023-04-15T19:56:24.013Z,50.15
2023-04-15T20:01:25.699Z,50.66
2023-04-15T20:06:27.159Z,50.37
2023-04-15T20:12:05.032Z,50.13
2023-04-15T20:16:50.098Z,50.79
2023-04-15T20:21:52.683Z,51.53
2023-04-15T20:26:54.220Z,52.68
2023-04-15T20:31:55.657Z,52.94
2023-04-15T20:36:57.136Z,53.07
2023-04-15T20:41:58.648Z,53.40
2023-04-15T20:47:00.194Z,53.40
2023-04-15T20:52:02.414Z,54.83
2023-04-15T20:57:03.874Z,55.43
2023-04-15T21:02:05.462Z,55.56
2023-04-15T21:07:06.957Z,55.95
2023-04-15T21:12:09.066Z,56.82
2023-04-15T21:17:11.303Z,56.61
2023-04-15T21:22:13.014Z,56.70
2023-04-15T21:27:14.457Z,58.23
2023-04-15T21:32:16.087Z,57.76
2023-04-15T21:37:17.594Z,59.07
2023-04-15T21:42:19.080Z,59.25
2023-04-15T21:47:20.594Z,58.86
2023-04-15T21:52:22.177Z,59.28
2023-04-15T21:57:23.679Z,58.67
2023-04-15T22:02:25.252Z,59.01
2023-04-15T22:07:26.792Z,58.55
2023-04-15T22:12:28.284Z,59.18
2023-04-15T22:17:29.773Z,58.65
2023-04-15T22:22:41.429Z,58.53
2023-04-15T22:27:45.202Z,58.01
2023-04-15T22:32:46.730Z,57.49
2023-04-15T22:37:48.258Z,58.57
2023-04-15T22:42:49.854Z,58.46
2023-04-15T22:47:53.631Z,58.87
2023-04-15T22:52:55.149Z,58.44
2023-04-15T22:57:56.652Z,58.04
2023-04-15T23:02:58.328Z,57.45
2023-04-15T23:07:59.944Z,58.32
2023-04-15T23:13:01.378Z,58.42
2023-04-15T23:18:02.945Z,58.80
2023-04-15T23:23:04.493Z,58.87
2023-04-15T23:28:06.104Z,58.53
2023-04-15T23:33:07.552Z,58.01
2023-04-15T23:38:09.084Z,57.95
2023-04-15T23:43:10.564Z,58.00
2023-04-15T23:48:12.074Z,58.06
2023-04-15T23:53:13.569Z,58.48
2023-04-15T23:58:15.065Z,58.98
